sensor_id;sensor_type;location;lat;lon;timestamp;temperature;humidity
63899;HTU21D;50070;-32.946;-60.652;2023-06-14T00:01:57;12.61;47.70
63899;HTU21D;50070;-32.946;-60.652;2023-06-14T00:04:24;12.30;47.99
63899;HTU21D;50070;-32.946;-60.652;2023-06-14T00:06:51;12.04;49.24
63899;HTU21D;50070;-32.946;-60.652;2023-06-14T00:09:18;11.94;50.29
63899;HTU21D;50070;-32.946;-60.652;2023-06-14T00:11:45;12.06;50.12
63899;HTU21D;50070;-32.946;-60.652;2023-06-14T00:14:12;12.13;50.37
63899;HTU21D;50070;-32.946;-60.652;2023-06-14T00:16:41;12.05;50.92
63899;HTU21D;50070;-32.946;-60.652;2023-06-14T00:19:08;11.92;51.17
63899;HTU21D;50070;-32.946;-60.652;2023-06-14T00:21:37;11.83;51.84
63899;HTU21D;50070;-32.946;-60.652;2023-06-14T00:24:04;11.79;52.09
63899;HTU21D;50070;-32.946;-60.652;2023-06-14T00:26:31;11.76;51.50
63899;HTU21D;50070;-32.946;-60.652;2023-06-14T00:28:58;11.70;51.93
63899;HTU21D;50070;-32.946;-60.652;2023-06-14T00:31:24;11.66;51.62
63899;HTU21D;50070;-32.946;-60.652;2023-06-14T00:33:51;11.57;52.05
63899;HTU21D;50070;-32.946;-60.652;2023-06-14T00:36:17;11.63;51.71
63899;HTU21D;50070;-32.946;-60.652;2023-06-14T00:38:44;11.79;51.45
63899;HTU21D;50070;-32.946;-60.652;2023-06-14T00:41:11;11.99;50.61
63899;HTU21D;50070;-32.946;-60.652;2023-06-14T00:43:38;12.05;50.60
63899;HTU21D;50070;-32.946;-60.652;2023-06-14T00:46:05;12.10;49.95
63899;HTU21D;50070;-32.946;-60.652;2023-06-14T00:48:33;11.99;50.50
63899;HTU21D;50070;-32.946;-60.652;2023-06-14T00:51:00;12.13;50.21
63899;HTU21D;50070;-32.946;-60.652;2023-06-14T00:53:32;12.05;50.53
63899;HTU21D;50070;-32.946;-60.652;2023-06-14T00:56:02;12.11;50.08
63899;HTU21D;50070;-32.946;-60.652;2023-06-14T00:58:29;12.08;50.14
63899;HTU21D;50070;-32.946;-60.652;2023-06-14T01:00:57;12.08;50.04
63899;HTU21D;50070;-32.946;-60.652;2023-06-14T01:03:24;12.20;50.63
63899;HTU21D;50070;-32.946;-60.652;2023-06-14T01:05:59;12.21;51.22
63899;HTU21D;50070;-32.946;-60.652;2023-06-14T01:12:05;12.15;52.27
63899;HTU21D;50070;-32.946;-60.652;2023-06-14T01:14:35;12.31;51.16
63899;HTU21D;50070;-32.946;-60.652;2023-06-14T01:17:03;12.17;51.92
63899;HTU21D;50070;-32.946;-60.652;2023-06-14T01:19:31;12.28;52.29
63899;HTU21D;50070;-32.946;-60.652;2023-06-14T01:22:01;12.36;51.66
63899;HTU21D;50070;-32.946;-60.652;2023-06-14T01:24:28;12.12;51.61
63899;HTU21D;50070;-32.946;-60.652;2023-06-14T01:26:58;12.17;51.36
63899;HTU21D;50070;-32.946;-60.652;2023-06-14T01:29:27;12.22;51.21
63899;HTU21D;50070;-32.946;-60.652;2023-06-14T01:32:02;12.12;51.94
63899;HTU21D;50070;-32.946;-60.652;2023-06-14T01:34:30;12.36;51.55
63899;HTU21D;50070;-32.946;-60.652;2023-06-14T01:36:58;12.16;52.20
63899;HTU21D;50070;-32.946;-60.652;2023-06-14T01:39:26;12.11;52.67
63899;HTU21D;50070;-32.946;-60.652;2023-06-14T01:41:54;12.16;51.82
63899;HTU21D;50070;-32.946;-60.652;2023-06-14T01:44:22;12.10;51.38
63899;HTU21D;50070;-32.946;-60.652;2023-06-14T01:46:49;12.17;51.23
63899;HTU21D;50070;-32.946;-60.652;2023-06-14T01:49:16;12.23;51.46
63899;HTU21D;50070;-32.946;-60.652;2023-06-14T01:51:43;12.12;52.05
63899;HTU21D;50070;-32.946;-60.652;2023-06-14T01:54:10;12.18;52.30
63899;HTU21D;50070;-32.946;-60.652;2023-06-14T01:56:36;12.41;51.34
63899;HTU21D;50070;-32.946;-60.652;2023-06-14T01:59:03;12.19;52.04
63899;HTU21D;50070;-32.946;-60.652;2023-06-14T02:01:30;11.99;52.93
63899;HTU21D;50070;-32.946;-60.652;2023-06-14T02:03:57;12.12;52.40
63899;HTU21D;50070;-32.946;-60.652;2023-06-14T02:06:26;12.21;52.56
63899;HTU21D;50070;-32.946;-60.652;2023-06-14T02:08:53;12.20;52.55
63899;HTU21D;50070;-32.946;-60.652;2023-06-14T02:11:20;12.14;52.94
63899;HTU21D;50070;-32.946;-60.652;2023-06-14T02:13:46;12.22;52.81
63899;HTU21D;50070;-32.946;-60.652;2023-06-14T02:16:13;12.17;52.46
63899;HTU21D;50070;-32.946;-60.652;2023-06-14T02:18:40;12.29;52.40
63899;HTU21D;50070;-32.946;-60.652;2023-06-14T02:21:07;12.13;53.03
63899;HTU21D;50070;-32.946;-60.652;2023-06-14T02:23:34;12.18;52.55
63899;HTU21D;50070;-32.946;-60.652;2023-06-14T02:26:01;12.08;53.27
63899;HTU21D;50070;-32.946;-60.652;2023-06-14T02:28:28;12.05;53.56
63899;HTU21D;50070;-32.946;-60.652;2023-06-14T02:30:55;12.11;53.78
63899;HTU21D;50070;-32.946;-60.652;2023-06-14T02:33:22;12.14;53.90
63899;HTU21D;50070;-32.946;-60.652;2023-06-14T02:35:49;11.97;54.20
63899;HTU21D;50070;-32.946;-60.652;2023-06-14T02:38:16;12.01;54.37
63899;HTU21D;50070;-32.946;-60.652;2023-06-14T02:40:42;12.10;53.46
63899;HTU21D;50070;-32.946;-60.652;2023-06-14T02:43:09;12.13;53.17
63899;HTU21D;50070;-32.946;-60.652;2023-06-14T02:45:36;11.99;53.18
63899;HTU21D;50070;-32.946;-60.652;2023-06-14T02:48:03;11.84;53.80
63899;HTU21D;50070;-32.946;-60.652;2023-06-14T02:50:30;11.98;53.36
63899;HTU21D;50070;-32.946;-60.652;2023-06-14T02:52:56;12.12;53.05
63899;HTU21D;50070;-32.946;-60.652;2023-06-14T02:55:24;11.97;53.39
63899;HTU21D;50070;-32.946;-60.652;2023-06-14T02:57:52;11.93;51.95
63899;HTU21D;50070;-32.946;-60.652;2023-06-14T03:00:19;11.63;52.25
63899;HTU21D;50070;-32.946;-60.652;2023-06-14T03:02:46;11.78;52.24
63899;HTU21D;50070;-32.946;-60.652;2023-06-14T03:05:13;11.64;52.45
63899;HTU21D;50070;-32.946;-60.652;2023-06-14T03:07:40;11.70;52.17
63899;HTU21D;50070;-32.946;-60.652;2023-06-14T03:10:08;11.82;51.29
63899;HTU21D;50070;-32.946;-60.652;2023-06-14T03:12:39;11.78;51.09
63899;HTU21D;50070;-32.946;-60.652;2023-06-14T03:15:06;11.66;51.50
63899;HTU21D;50070;-32.946;-60.652;2023-06-14T03:17:33;11.85;50.87
63899;HTU21D;50070;-32.946;-60.652;2023-06-14T03:20:00;11.86;51.20
63899;HTU21D;50070;-32.946;-60.652;2023-06-14T03:22:28;11.72;51.72
63899;HTU21D;50070;-32.946;-60.652;2023-06-14T03:24:54;11.76;51.75
63899;HTU21D;50070;-32.946;-60.652;2023-06-14T03:27:21;11.63;52.06
63899;HTU21D;50070;-32.946;-60.652;2023-06-14T03:29:48;11.59;51.73
63899;HTU21D;50070;-32.946;-60.652;2023-06-14T03:32:15;11.68;51.44
63899;HTU21D;50070;-32.946;-60.652;2023-06-14T03:34:41;11.60;51.70
63899;HTU21D;50070;-32.946;-60.652;2023-06-14T03:37:08;11.69;51.91
63899;HTU21D;50070;-32.946;-60.652;2023-06-14T03:39:35;11.70;51.43
63899;HTU21D;50070;-32.946;-60.652;2023-06-14T03:42:03;11.70;51.54
63899;HTU21D;50070;-32.946;-60.652;2023-06-14T03:44:30;11.73;51.63
63899;HTU21D;50070;-32.946;-60.652;2023-06-14T03:46:56;11.48;52.35
63899;HTU21D;50070;-32.946;-60.652;2023-06-14T03:49:23;11.75;51.80
63899;HTU21D;50070;-32.946;-60.652;2023-06-14T03:51:50;11.93;51.61
63899;HTU21D;50070;-32.946;-60.652;2023-06-14T03:54:17;11.49;53.17
63899;HTU21D;50070;-32.946;-60.652;2023-06-14T03:56:44;11.57;53.41
63899;HTU21D;50070;-32.946;-60.652;2023-06-14T03:59:11;11.75;53.45
63899;HTU21D;50070;-32.946;-60.652;2023-06-14T04:01:38;11.68;53.97
63899;HTU21D;50070;-32.946;-60.652;2023-06-14T04:04:11;11.54;54.70
63899;HTU21D;50070;-32.946;-60.652;2023-06-14T04:06:38;11.53;55.43
63899;HTU21D;50070;-32.946;-60.652;2023-06-14T04:09:06;11.62;55.38
63899;HTU21D;50070;-32.946;-60.652;2023-06-14T04:11:33;11.49;55.65
63899;HTU21D;50070;-32.946;-60.652;2023-06-14T04:14:01;11.44;55.78
63899;HTU21D;50070;-32.946;-60.652;2023-06-14T04:16:28;11.41;56.21
63899;HTU21D;50070;-32.946;-60.652;2023-06-14T04:18:55;11.47;55.84
63899;HTU21D;50070;-32.946;-60.652;2023-06-14T04:21:24;11.44;56.17
63899;HTU21D;50070;-32.946;-60.652;2023-06-14T04:23:52;11.40;56.35
63899;HTU21D;50070;-32.946;-60.652;2023-06-14T04:26:19;11.36;57.37
63899;HTU21D;50070;-32.946;-60.652;2023-06-14T04:28:47;11.27;58.24
63899;HTU21D;50070;-32.946;-60.652;2023-06-14T04:31:13;11.22;57.51
63899;HTU21D;50070;-32.946;-60.652;2023-06-14T04:33:41;11.45;56.33
63899;HTU21D;50070;-32.946;-60.652;2023-06-14T04:36:13;11.54;56.19
63899;HTU21D;50070;-32.946;-60.652;2023-06-14T04:38:40;11.49;56.60
63899;HTU21D;50070;-32.946;-60.652;2023-06-14T04:41:08;11.34;56.97
63899;HTU21D;50070;-32.946;-60.652;2023-06-14T04:43:38;11.39;56.84
63899;HTU21D;50070;-32.946;-60.652;2023-06-14T04:46:07;11.29;57.61
63899;HTU21D;50070;-32.946;-60.652;2023-06-14T04:48:39;11.26;57.41
63899;HTU21D;50070;-32.946;-60.652;2023-06-14T04:51:10;11.39;56.88
63899;HTU21D;50070;-32.946;-60.652;2023-06-14T04:53:37;11.32;57.42
63899;HTU21D;50070;-32.946;-60.652;2023-06-14T04:56:04;11.26;57.76
63899;HTU21D;50070;-32.946;-60.652;2023-06-14T04:58:31;11.11;58.34
63899;HTU21D;50070;-32.946;-60.652;2023-06-14T05:00:57;11.15;58.13
63899;HTU21D;50070;-32.946;-60.652;2023-06-14T05:03:25;11.17;58.37
63899;HTU21D;50070;-32.946;-60.652;2023-06-14T05:05:53;11.16;58.35
63899;HTU21D;50070;-32.946;-60.652;2023-06-14T05:08:21;11.13;58.77
63899;HTU21D;50070;-32.946;-60.652;2023-06-14T05:10:52;11.11;58.95
63899;HTU21D;50070;-32.946;-60.652;2023-06-14T05:13:19;10.96;60.33
63899;HTU21D;50070;-32.946;-60.652;2023-06-14T05:15:47;11.00;59.80
63899;HTU21D;50070;-32.946;-60.652;2023-06-14T05:18:15;11.10;59.80
63899;HTU21D;50070;-32.946;-60.652;2023-06-14T05:20:41;11.05;59.75
63899;HTU21D;50070;-32.946;-60.652;2023-06-14T05:23:08;11.01;60.19
63899;HTU21D;50070;-32.946;-60.652;2023-06-14T05:25:44;11.00;60.20
63899;HTU21D;50070;-32.946;-60.652;2023-06-14T05:28:11;11.01;60.09
63899;HTU21D;50070;-32.946;-60.652;2023-06-14T05:30:38;11.01;60.18
63899;HTU21D;50070;-32.946;-60.652;2023-06-14T05:33:06;10.98;60.49
63899;HTU21D;50070;-32.946;-60.652;2023-06-14T05:35:32;10.97;60.51
63899;HTU21D;50070;-32.946;-60.652;2023-06-14T05:37:59;10.99;60.67
63899;HTU21D;50070;-32.946;-60.652;2023-06-14T05:40:26;11.00;60.34
63899;HTU21D;50070;-32.946;-60.652;2023-06-14T05:42:53;11.08;59.89
63899;HTU21D;50070;-32.946;-60.652;2023-06-14T05:45:19;11.19;59.26
63899;HTU21D;50070;-32.946;-60.652;2023-06-14T05:47:46;11.18;58.84
63899;HTU21D;50070;-32.946;-60.652;2023-06-14T05:50:14;11.17;59.31
63899;HTU21D;50070;-32.946;-60.652;2023-06-14T05:52:41;11.29;58.48
63899;HTU21D;50070;-32.946;-60.652;2023-06-14T05:55:08;11.18;58.56
63899;HTU21D;50070;-32.946;-60.652;2023-06-14T05:57:38;11.33;58.01
63899;HTU21D;50070;-32.946;-60.652;2023-06-14T06:00:06;11.32;58.13
63899;HTU21D;50070;-32.946;-60.652;2023-06-14T06:02:51;11.25;58.76
63899;HTU21D;50070;-32.946;-60.652;2023-06-14T06:05:18;11.13;59.04
63899;HTU21D;50070;-32.946;-60.652;2023-06-14T06:07:45;11.04;59.57
63899;HTU21D;50070;-32.946;-60.652;2023-06-14T06:10:12;10.90;60.75
63899;HTU21D;50070;-32.946;-60.652;2023-06-14T06:12:42;11.02;59.46
63899;HTU21D;50070;-32.946;-60.652;2023-06-14T06:15:09;10.72;60.41
63899;HTU21D;50070;-32.946;-60.652;2023-06-14T06:17:40;10.86;60.15
63899;HTU21D;50070;-32.946;-60.652;2023-06-14T06:20:07;10.97;59.40
63899;HTU21D;50070;-32.946;-60.652;2023-06-14T06:22:34;10.93;60.13
63899;HTU21D;50070;-32.946;-60.652;2023-06-14T06:25:01;10.92;60.15
63899;HTU21D;50070;-32.946;-60.652;2023-06-14T06:27:28;10.86;60.61
63899;HTU21D;50070;-32.946;-60.652;2023-06-14T06:29:55;10.80;61.14
63899;HTU21D;50070;-32.946;-60.652;2023-06-14T06:32:22;10.78;61.04
63899;HTU21D;50070;-32.946;-60.652;2023-06-14T06:34:49;10.69;61.54
63899;HTU21D;50070;-32.946;-60.652;2023-06-14T06:37:16;10.73;61.47
63899;HTU21D;50070;-32.946;-60.652;2023-06-14T06:39:43;10.66;62.15
63899;HTU21D;50070;-32.946;-60.652;2023-06-14T06:42:10;10.75;62.31
63899;HTU21D;50070;-32.946;-60.652;2023-06-14T06:44:37;10.95;61.49
63899;HTU21D;50070;-32.946;-60.652;2023-06-14T06:47:03;10.83;61.99
63899;HTU21D;50070;-32.946;-60.652;2023-06-14T06:49:30;10.70;62.92
63899;HTU21D;50070;-32.946;-60.652;2023-06-14T06:52:05;10.69;63.23
63899;HTU21D;50070;-32.946;-60.652;2023-06-14T06:54:33;10.69;63.50
63899;HTU21D;50070;-32.946;-60.652;2023-06-14T06:57:00;10.69;64.05
63899;HTU21D;50070;-32.946;-60.652;2023-06-14T06:59:27;10.82;63.22
63899;HTU21D;50070;-32.946;-60.652;2023-06-14T07:01:54;11.07;62.04
63899;HTU21D;50070;-32.946;-60.652;2023-06-14T07:04:21;10.96;62.98
63899;HTU21D;50070;-32.946;-60.652;2023-06-14T07:06:48;10.73;63.88
63899;HTU21D;50070;-32.946;-60.652;2023-06-14T07:09:15;10.59;64.74
63899;HTU21D;50070;-32.946;-60.652;2023-06-14T07:11:45;10.48;64.85
63899;HTU21D;50070;-32.946;-60.652;2023-06-14T07:14:12;10.19;67.10
63899;HTU21D;50070;-32.946;-60.652;2023-06-14T07:16:39;10.43;66.12
63899;HTU21D;50070;-32.946;-60.652;2023-06-14T07:19:07;10.29;67.68
63899;HTU21D;50070;-32.946;-60.652;2023-06-14T07:21:35;10.15;68.94
63899;HTU21D;50070;-32.946;-60.652;2023-06-14T07:24:05;10.25;69.05
63899;HTU21D;50070;-32.946;-60.652;2023-06-14T07:26:33;10.00;71.12
63899;HTU21D;50070;-32.946;-60.652;2023-06-14T07:28:59;10.16;70.80
63899;HTU21D;50070;-32.946;-60.652;2023-06-14T07:31:26;10.09;71.71
63899;HTU21D;50070;-32.946;-60.652;2023-06-14T07:33:53;9.99;71.92
63899;HTU21D;50070;-32.946;-60.652;2023-06-14T07:36:20;9.84;74.51
63899;HTU21D;50070;-32.946;-60.652;2023-06-14T07:38:47;9.75;74.28
63899;HTU21D;50070;-32.946;-60.652;2023-06-14T07:41:13;9.66;74.97
63899;HTU21D;50070;-32.946;-60.652;2023-06-14T07:43:40;9.46;77.13
63899;HTU21D;50070;-32.946;-60.652;2023-06-14T07:46:06;9.54;77.32
63899;HTU21D;50070;-32.946;-60.652;2023-06-14T07:48:34;9.80;74.91
63899;HTU21D;50070;-32.946;-60.652;2023-06-14T07:51:01;9.84;74.44
63899;HTU21D;50070;-32.946;-60.652;2023-06-14T07:53:28;9.93;73.53
63899;HTU21D;50070;-32.946;-60.652;2023-06-14T07:55:57;9.84;72.91
63899;HTU21D;50070;-32.946;-60.652;2023-06-14T07:58:23;9.93;72.47
63899;HTU21D;50070;-32.946;-60.652;2023-06-14T08:00:50;10.16;70.32
63899;HTU21D;50070;-32.946;-60.652;2023-06-14T08:03:17;10.05;70.90
63899;HTU21D;50070;-32.946;-60.652;2023-06-14T08:05:44;10.09;70.64
63899;HTU21D;50070;-32.946;-60.652;2023-06-14T08:08:10;10.13;70.53
63899;HTU21D;50070;-32.946;-60.652;2023-06-14T08:10:37;10.21;69.37
63899;HTU21D;50070;-32.946;-60.652;2023-06-14T08:13:04;10.19;69.90
63899;HTU21D;50070;-32.946;-60.652;2023-06-14T08:15:31;9.79;72.35
63899;HTU21D;50070;-32.946;-60.652;2023-06-14T08:17:58;9.83;72.36
63899;HTU21D;50070;-32.946;-60.652;2023-06-14T08:20:26;9.93;71.61
63899;HTU21D;50070;-32.946;-60.652;2023-06-14T08:22:53;9.84;72.34
63899;HTU21D;50070;-32.946;-60.652;2023-06-14T08:25:23;9.88;72.24
63899;HTU21D;50070;-32.946;-60.652;2023-06-14T08:27:50;10.21;70.31
63899;HTU21D;50070;-32.946;-60.652;2023-06-14T08:30:17;9.92;71.59
63899;HTU21D;50070;-32.946;-60.652;2023-06-14T08:32:44;10.06;72.69
63899;HTU21D;50070;-32.946;-60.652;2023-06-14T08:35:11;10.04;72.93
63899;HTU21D;50070;-32.946;-60.652;2023-06-14T08:37:40;9.95;73.03
63899;HTU21D;50070;-32.946;-60.652;2023-06-14T08:40:20;9.71;75.10
63899;HTU21D;50070;-32.946;-60.652;2023-06-14T08:42:55;9.62;75.95
63899;HTU21D;50070;-32.946;-60.652;2023-06-14T08:45:23;9.54;76.18
63899;HTU21D;50070;-32.946;-60.652;2023-06-14T08:47:51;9.42;77.15
63899;HTU21D;50070;-32.946;-60.652;2023-06-14T08:50:25;9.69;74.96
63899;HTU21D;50070;-32.946;-60.652;2023-06-14T08:52:54;9.44;75.23
63899;HTU21D;50070;-32.946;-60.652;2023-06-14T08:55:23;9.37;75.08
63899;HTU21D;50070;-32.946;-60.652;2023-06-14T08:57:57;9.79;71.76
63899;HTU21D;50070;-32.946;-60.652;2023-06-14T09:00:26;9.80;72.11
63899;HTU21D;50070;-32.946;-60.652;2023-06-14T09:02:53;9.53;73.51
63899;HTU21D;50070;-32.946;-60.652;2023-06-14T09:05:26;9.53;73.58
63899;HTU21D;50070;-32.946;-60.652;2023-06-14T09:07:54;9.37;74.99
63899;HTU21D;50070;-32.946;-60.652;2023-06-14T09:10:22;9.37;74.09
63899;HTU21D;50070;-32.946;-60.652;2023-06-14T09:12:49;9.52;73.02
63899;HTU21D;50070;-32.946;-60.652;2023-06-14T09:15:16;9.53;72.45
63899;HTU21D;50070;-32.946;-60.652;2023-06-14T09:17:43;9.34;71.19
63899;HTU21D;50070;-32.946;-60.652;2023-06-14T09:20:10;9.15;74.15
63899;HTU21D;50070;-32.946;-60.652;2023-06-14T09:22:39;9.42;72.74
63899;HTU21D;50070;-32.946;-60.652;2023-06-14T09:25:07;9.55;71.13
63899;HTU21D;50070;-32.946;-60.652;2023-06-14T09:27:34;9.36;71.82
63899;HTU21D;50070;-32.946;-60.652;2023-06-14T09:30:03;9.34;72.47
63899;HTU21D;50070;-32.946;-60.652;2023-06-14T09:32:30;9.41;72.84
63899;HTU21D;50070;-32.946;-60.652;2023-06-14T09:34:57;9.22;74.34
63899;HTU21D;50070;-32.946;-60.652;2023-06-14T09:37:31;9.11;76.72
63899;HTU21D;50070;-32.946;-60.652;2023-06-14T09:39:58;9.23;80.56
63899;HTU21D;50070;-32.946;-60.652;2023-06-14T09:42:26;9.16;80.41
63899;HTU21D;50070;-32.946;-60.652;2023-06-14T09:44:55;9.11;80.01
63899;HTU21D;50070;-32.946;-60.652;2023-06-14T09:47:23;9.01;81.36
63899;HTU21D;50070;-32.946;-60.652;2023-06-14T09:49:51;9.02;79.98
63899;HTU21D;50070;-32.946;-60.652;2023-06-14T09:52:21;8.96;79.95
63899;HTU21D;50070;-32.946;-60.652;2023-06-14T09:54:53;9.10;80.40
63899;HTU21D;50070;-32.946;-60.652;2023-06-14T09:57:23;8.95;80.56
63899;HTU21D;50070;-32.946;-60.652;2023-06-14T09:59:54;9.10;81.49
63899;HTU21D;50070;-32.946;-60.652;2023-06-14T10:02:36;8.96;82.90
63899;HTU21D;50070;-32.946;-60.652;2023-06-14T10:05:08;9.01;83.52
63899;HTU21D;50070;-32.946;-60.652;2023-06-14T10:07:50;9.16;82.42
63899;HTU21D;50070;-32.946;-60.652;2023-06-14T10:10:19;8.93;85.51
63899;HTU21D;50070;-32.946;-60.652;2023-06-14T10:12:46;8.79;86.54
63899;HTU21D;50070;-32.946;-60.652;2023-06-14T10:15:28;8.89;88.86
63899;HTU21D;50070;-32.946;-60.652;2023-06-14T10:18:06;9.02;87.95
63899;HTU21D;50070;-32.946;-60.652;2023-06-14T10:23:44;9.03;89.37
63899;HTU21D;50070;-32.946;-60.652;2023-06-14T10:26:22;8.89;92.04
63899;HTU21D;50070;-32.946;-60.652;2023-06-14T10:29:00;8.80;93.22
63899;HTU21D;50070;-32.946;-60.652;2023-06-14T10:31:41;8.76;94.58
63899;HTU21D;50070;-32.946;-60.652;2023-06-14T10:34:09;8.94;95.10
63899;HTU21D;50070;-32.946;-60.652;2023-06-14T10:36:36;9.06;93.61
63899;HTU21D;50070;-32.946;-60.652;2023-06-14T10:39:17;9.09;93.50
63899;HTU21D;50070;-32.946;-60.652;2023-06-14T10:41:56;9.05;94.71
63899;HTU21D;50070;-32.946;-60.652;2023-06-14T10:46:53;8.86;95.64
63899;HTU21D;50070;-32.946;-60.652;2023-06-14T10:49:20;9.07;96.95
63899;HTU21D;50070;-32.946;-60.652;2023-06-14T10:51:51;9.32;93.76
63899;HTU21D;50070;-32.946;-60.652;2023-06-14T10:54:21;9.25;94.43
63899;HTU21D;50070;-32.946;-60.652;2023-06-14T10:56:51;9.35;94.92
63899;HTU21D;50070;-32.946;-60.652;2023-06-14T10:59:19;9.14;96.72
63899;HTU21D;50070;-32.946;-60.652;2023-06-14T11:04:59;9.36;95.37
63899;HTU21D;50070;-32.946;-60.652;2023-06-14T11:12:56;9.39;98.39
63899;HTU21D;50070;-32.946;-60.652;2023-06-14T11:15:33;9.37;98.89
63899;HTU21D;50070;-32.946;-60.652;2023-06-14T11:18:05;9.41;97.91
63899;HTU21D;50070;-32.946;-60.652;2023-06-14T11:20:34;9.35;99.77
63899;HTU21D;50070;-32.946;-60.652;2023-06-14T11:23:04;9.47;98.82
63899;HTU21D;50070;-32.946;-60.652;2023-06-14T11:25:31;9.27;100.90
63899;HTU21D;50070;-32.946;-60.652;2023-06-14T11:27:58;9.23;97.74
63899;HTU21D;50070;-32.946;-60.652;2023-06-14T11:30:25;9.47;97.39
63899;HTU21D;50070;-32.946;-60.652;2023-06-14T11:32:53;9.59;96.02
63899;HTU21D;50070;-32.946;-60.652;2023-06-14T11:35:22;9.59;97.78
63899;HTU21D;50070;-32.946;-60.652;2023-06-14T11:37:55;9.39;98.96
63899;HTU21D;50070;-32.946;-60.652;2023-06-14T11:40:27;9.67;96.77
63899;HTU21D;50070;-32.946;-60.652;2023-06-14T11:43:02;9.68;97.29
63899;HTU21D;50070;-32.946;-60.652;2023-06-14T11:45:30;9.77;97.35
63899;HTU21D;50070;-32.946;-60.652;2023-06-14T11:47:58;9.59;97.58
63899;HTU21D;50070;-32.946;-60.652;2023-06-14T11:50:26;9.57;96.40
63899;HTU21D;50070;-32.946;-60.652;2023-06-14T11:52:58;9.75;96.54
63899;HTU21D;50070;-32.946;-60.652;2023-06-14T11:55:40;9.80;96.48
63899;HTU21D;50070;-32.946;-60.652;2023-06-14T11:58:07;9.77;96.31
63899;HTU21D;50070;-32.946;-60.652;2023-06-14T12:00:37;9.85;96.60
63899;HTU21D;50070;-32.946;-60.652;2023-06-14T12:03:04;9.90;96.65
63899;HTU21D;50070;-32.946;-60.652;2023-06-14T12:05:32;10.05;96.39
63899;HTU21D;50070;-32.946;-60.652;2023-06-14T12:08:02;10.12;96.06
63899;HTU21D;50070;-32.946;-60.652;2023-06-14T12:10:42;10.19;95.52
63899;HTU21D;50070;-32.946;-60.652;2023-06-14T12:13:09;10.10;97.07
63899;HTU21D;50070;-32.946;-60.652;2023-06-14T12:15:37;10.33;95.17
63899;HTU21D;50070;-32.946;-60.652;2023-06-14T12:18:06;10.39;94.36
63899;HTU21D;50070;-32.946;-60.652;2023-06-14T12:20:34;10.49;96.35
63899;HTU21D;50070;-32.946;-60.652;2023-06-14T12:23:03;10.39;95.94
63899;HTU21D;50070;-32.946;-60.652;2023-06-14T12:25:35;10.24;97.28
63899;HTU21D;50070;-32.946;-60.652;2023-06-14T12:28:09;10.34;96.79
63899;HTU21D;50070;-32.946;-60.652;2023-06-14T12:30:37;10.54;96.33
63899;HTU21D;50070;-32.946;-60.652;2023-06-14T12:33:04;10.45;96.57
63899;HTU21D;50070;-32.946;-60.652;2023-06-14T12:35:32;10.52;96.67
63899;HTU21D;50070;-32.946;-60.652;2023-06-14T12:37:58;10.42;96.23
63899;HTU21D;50070;-32.946;-60.652;2023-06-14T12:40:25;10.54;95.89
63899;HTU21D;50070;-32.946;-60.652;2023-06-14T12:42:52;10.69;95.12
63899;HTU21D;50070;-32.946;-60.652;2023-06-14T12:45:19;10.65;95.87
63899;HTU21D;50070;-32.946;-60.652;2023-06-14T12:47:46;10.54;95.42
63899;HTU21D;50070;-32.946;-60.652;2023-06-14T12:50:13;10.68;93.88
63899;HTU21D;50070;-32.946;-60.652;2023-06-14T12:52:39;10.77;92.45
63899;HTU21D;50070;-32.946;-60.652;2023-06-14T12:55:06;10.89;91.10
63899;HTU21D;50070;-32.946;-60.652;2023-06-14T12:57:34;10.82;89.76
63899;HTU21D;50070;-32.946;-60.652;2023-06-14T13:00:03;11.03;88.05
63899;HTU21D;50070;-32.946;-60.652;2023-06-14T13:02:31;11.00;86.35
63899;HTU21D;50070;-32.946;-60.652;2023-06-14T13:04:57;10.81;85.41
63899;HTU21D;50070;-32.946;-60.652;2023-06-14T13:07:25;10.98;86.51
63899;HTU21D;50070;-32.946;-60.652;2023-06-14T13:09:51;10.90;84.38
63899;HTU21D;50070;-32.946;-60.652;2023-06-14T13:12:18;11.07;83.15
63899;HTU21D;50070;-32.946;-60.652;2023-06-14T13:14:46;10.96;83.40
63899;HTU21D;50070;-32.946;-60.652;2023-06-14T13:17:13;11.16;81.41
63899;HTU21D;50070;-32.946;-60.652;2023-06-14T13:19:39;11.24;80.72
63899;HTU21D;50070;-32.946;-60.652;2023-06-14T13:22:08;10.86;79.21
63899;HTU21D;50070;-32.946;-60.652;2023-06-14T13:24:35;10.82;81.23
63899;HTU21D;50070;-32.946;-60.652;2023-06-14T13:27:01;10.56;81.14
63899;HTU21D;50070;-32.946;-60.652;2023-06-14T13:29:28;10.81;78.81
63899;HTU21D;50070;-32.946;-60.652;2023-06-14T13:31:57;10.79;78.65
63899;HTU21D;50070;-32.946;-60.652;2023-06-14T13:34:23;10.62;76.97
63899;HTU21D;50070;-32.946;-60.652;2023-06-14T13:36:50;10.92;77.82
63899;HTU21D;50070;-32.946;-60.652;2023-06-14T13:39:17;11.31;74.92
63899;HTU21D;50070;-32.946;-60.652;2023-06-14T13:41:44;11.19;74.47
63899;HTU21D;50070;-32.946;-60.652;2023-06-14T13:44:11;11.33;73.46
63899;HTU21D;50070;-32.946;-60.652;2023-06-14T13:46:40;11.45;70.46
63899;HTU21D;50070;-32.946;-60.652;2023-06-14T13:49:09;11.38;69.81
63899;HTU21D;50070;-32.946;-60.652;2023-06-14T13:51:36;11.31;68.68
63899;HTU21D;50070;-32.946;-60.652;2023-06-14T13:54:09;11.22;70.05
63899;HTU21D;50070;-32.946;-60.652;2023-06-14T13:56:36;11.31;68.27
63899;HTU21D;50070;-32.946;-60.652;2023-06-14T13:59:02;11.43;68.99
63899;HTU21D;50070;-32.946;-60.652;2023-06-14T14:01:29;11.51;64.84
63899;HTU21D;50070;-32.946;-60.652;2023-06-14T14:03:56;11.70;65.64
63899;HTU21D;50070;-32.946;-60.652;2023-06-14T14:06:24;11.72;66.76
63899;HTU21D;50070;-32.946;-60.652;2023-06-14T14:08:51;11.74;64.08
63899;HTU21D;50070;-32.946;-60.652;2023-06-14T14:11:19;11.79;64.24
63899;HTU21D;50070;-32.946;-60.652;2023-06-14T14:13:46;11.98;63.52
63899;HTU21D;50070;-32.946;-60.652;2023-06-14T14:16:13;11.97;64.42
63899;HTU21D;50070;-32.946;-60.652;2023-06-14T14:18:40;11.93;63.67
63899;HTU21D;50070;-32.946;-60.652;2023-06-14T14:21:07;11.49;64.18
63899;HTU21D;50070;-32.946;-60.652;2023-06-14T14:23:35;11.84;66.04
63899;HTU21D;50070;-32.946;-60.652;2023-06-14T14:26:02;12.12;64.18
63899;HTU21D;50070;-32.946;-60.652;2023-06-14T14:28:31;12.26;60.56
63899;HTU21D;50070;-32.946;-60.652;2023-06-14T14:30:58;12.41;59.78
63899;HTU21D;50070;-32.946;-60.652;2023-06-14T14:33:25;12.50;58.89
63899;HTU21D;50070;-32.946;-60.652;2023-06-14T14:35:52;12.60;57.46
63899;HTU21D;50070;-32.946;-60.652;2023-06-14T14:38:19;12.61;57.06
63899;HTU21D;50070;-32.946;-60.652;2023-06-14T14:40:46;12.58;56.07
63899;HTU21D;50070;-32.946;-60.652;2023-06-14T14:43:13;12.64;56.45
63899;HTU21D;50070;-32.946;-60.652;2023-06-14T14:45:40;12.43;56.42
63899;HTU21D;50070;-32.946;-60.652;2023-06-14T14:48:07;12.43;55.86
63899;HTU21D;50070;-32.946;-60.652;2023-06-14T14:50:33;12.64;56.03
63899;HTU21D;50070;-32.946;-60.652;2023-06-14T14:53:00;12.65;55.11
63899;HTU21D;50070;-32.946;-60.652;2023-06-14T14:55:27;12.94;54.49
63899;HTU21D;50070;-32.946;-60.652;2023-06-14T14:57:54;12.95;54.31
63899;HTU21D;50070;-32.946;-60.652;2023-06-14T15:00:24;12.60;54.07
63899;HTU21D;50070;-32.946;-60.652;2023-06-14T15:02:51;12.79;54.42